Torroella de Montgrí (Baix Empordà)





Hora UTC 21:15
Temperatura 25.7 ºC
Humedad 77.0 %
Presión 1014.7 hPa
Pluja 0.0 mm
Velocidad viento 0.0 km/h
Dirección viento

Datos diarios 2024-07-24



Hora UTC (invierno +1h; verano +2h)
Temperatura (ºC) Humedad (%) Presión (hPa) Velocidad viento (km/h) Precipitación (mm)
Hora UTC Aire Humedad Presión Vel. Dir. Vel. Max Dir. Intent. máx 5 min.
00:05 27.7 54.0 1018.1 16.1 16.1 0.0
00:15 27.7 54.0 1018.1 16.1 24.1 0.0
00:25 27.6 55.0 1018.0 17.7 32.2 0.0
00:35 27.4 55.0 1018.0 19.3 41.8 0.0
00:45 27.4 55.0 1018.0 19.3 41.8 0.0
00:55 27.3 56.0 1017.9 19.3 41.8 0.0
01:05 27.3 56.0 1017.8 19.3 41.8 0.0
01:15 27.3 56.0 1017.8 19.3 41.8 0.0
01:25 27.2 57.0 1017.8 17.7 41.8 0.0
01:35 27.1 57.0 1018.0 17.7 41.8 0.0
01:45 27.1 57.0 1018.0 17.7 41.8 0.0
01:55 27.1 57.0 1017.8 17.7 41.8 0.0
02:05 27.3 56.0 1017.6 19.3 41.8 0.0
02:15 27.3 56.0 1017.6 19.3 41.8 0.0
02:25 27.6 55.0 1017.4 19.3 41.8 0.0
02:35 27.6 55.0 1017.4 17.7 41.8 0.0
02:45 27.6 55.0 1017.4 17.7 41.8 0.0
02:55 27.1 57.0 1017.4 12.9 41.8 0.0
03:05 26.7 58.0 1017.5 14.5 41.8 0.0
03:15 26.7 58.0 1017.5 14.5 41.8 0.0
03:25 26.5 59.0 1017.4 16.1 41.8 0.0
03:35 26.3 59.0 1017.4 12.9 41.8 0.0
03:45 26.3 59.0 1017.4 12.9 41.8 0.0
03:55 26.2 60.0 1017.4 12.9 41.8 0.0
04:05 25.2 63.0 1017.4 9.7 41.8 0.0
04:15 25.2 63.0 1017.4 9.7 41.8 0.0
04:25 23.8 69.0 1017.5 8.0 41.8 0.0
04:35 22.6 74.0 1017.6 9.7 41.8 0.0
04:45 22.6 74.0 1017.6 9.7 41.8 0.0
04:55 22.5 75.0 1017.7 3.2 41.8 0.0
05:05 22.2 76.0 1017.6 6.4 41.8 0.0
05:15 22.2 76.0 1017.6 6.4 41.8 0.0
05:25 22.3 76.0 1017.7 6.4 41.8 0.0
05:35 22.6 75.0 1017.9 4.8 41.8 0.0
05:45 22.6 75.0 1017.9 4.8 41.8 0.0
05:55 22.6 75.0 1017.9 4.8 41.8 0.0
06:05 22.7 75.0 1017.9 4.8 41.8 0.0
06:15 22.7 75.0 1017.9 4.8 41.8 0.0
06:25 22.8 74.0 1017.9 3.2 41.8 0.0
06:35 22.9 75.0 1018.1 3.2 41.8 0.0
06:45 22.9 75.0 1018.1 3.2 41.8 0.0
06:55 23.8 73.0 1018.1 3.2 41.8 0.0
07:05 24.7 70.0 1018.0 4.8 41.8 0.0
07:15 24.7 70.0 1018.0 4.8 41.8 0.0
07:25 25.6 68.0 1018.0 4.8 41.8 0.0
07:35 26.3 64.0 1018.0 4.8 41.8 0.0
07:45 26.3 64.0 1018.0 4.8 41.8 0.0
07:55 27.2 61.0 1017.9 3.2 41.8 0.0
08:05 28.1 59.0 1017.7 1.6 41.8 0.0
08:15 28.1 59.0 1017.7 1.6 41.8 0.0
08:25 28.4 56.0 1017.6 4.8 41.8 0.0
08:35 29.9 53.0 1017.6 1.6 41.8 0.0
08:45 29.9 53.0 1017.6 1.6 41.8 0.0
08:55 29.5 55.0 1017.6 8.0 41.8 0.0
09:05 29.0 56.0 1017.5 8.0 41.8 0.0
09:15 29.0 56.0 1017.5 8.0 41.8 0.0
09:25 29.2 54.0 1017.5 11.3 41.8 0.0
09:35 29.1 55.0 1017.4 9.7 41.8 0.0
09:45 29.1 55.0 1017.4 9.7 41.8 0.0
09:55 29.0 56.0 1017.4 9.7 41.8 0.0
10:05 28.7 56.0 1017.4 12.9 41.8 0.0
10:15 28.7 56.0 1017.4 12.9 41.8 0.0
10:25 29.7 54.0 1017.3 11.3 41.8 0.0
10:35 29.3 56.0 1017.3 11.3 41.8 0.0
10:45 29.3 56.0 1017.3 11.3 41.8 0.0
10:55 29.1 56.0 1017.2 12.9 41.8 0.0
11:05 29.4 56.0 1017.2 12.9 41.8 0.0
11:15 29.4 56.0 1017.2 12.9 41.8 0.0
11:25 29.2 57.0 1017.2 14.5 41.8 0.0
11:35 29.2 57.0 1017.2 14.5 41.8 0.0
11:45 29.2 57.0 1017.2 14.5 41.8 0.0
11:55 29.2 57.0 1017.2 14.5 41.8 0.0
12:05 29.5 56.0 1017.0 12.9 41.8 0.0
12:15 29.5 56.0 1017.0 12.9 41.8 0.0
12:25 29.9 53.0 1016.9 12.9 41.8 0.0
12:35 29.7 53.0 1016.8 14.5 41.8 0.0
12:45 29.7 53.0 1016.8 14.5 41.8 0.0
12:55 30.1 52.0 1016.6 12.9 41.8 0.0
13:05 30.1 54.0 1016.5 12.9 41.8 0.0
13:15 30.1 54.0 1016.5 12.9 41.8 0.0
13:25 29.9 54.0 1016.3 14.5 41.8 0.0
13:35 29.8 57.0 1016.1 14.5 41.8 0.0
13:45 29.8 57.0 1016.1 14.5 41.8 0.0
13:55 29.8 57.0 1016.1 14.5 41.8 0.0
14:05 29.3 60.0 1015.8 16.1 41.8 0.0
14:15 29.3 60.0 1015.8 16.1 41.8 0.0
14:25 29.5 61.0 1015.8 14.5 41.8 0.0
14:35 29.6 61.0 1015.6 14.5 41.8 0.0
14:45 29.6 61.0 1015.6 14.5 41.8 0.0
14:55 29.8 58.0 1015.5 14.5 41.8 0.0
15:05 29.8 58.0 1015.4 14.5 41.8 0.0
15:15 29.8 58.0 1015.4 14.5 41.8 0.0
15:25 29.7 59.0 1015.3 12.9 41.8 0.0
15:35 29.6 61.0 1015.1 12.9 41.8 0.0
15:45 29.6 61.0 1015.1 12.9 41.8 0.0
15:55 29.3 65.0 1015.0 12.9 41.8 0.0
16:05 29.2 68.0 1014.8 12.9 41.8 0.0
16:15 29.2 68.0 1014.8 12.9 41.8 0.0
16:25 29.3 68.0 1014.6 9.7 41.8 0.0
16:35 29.1 67.0 1014.5 9.7 41.8 0.0
16:45 29.1 67.0 1014.5 9.7 41.8 0.0
16:55 29.1 67.0 1014.4 9.7 41.8 0.0
17:05 28.7 69.0 1014.4 9.7 41.8 0.0
17:15 28.7 69.0 1014.4 9.7 41.8 0.0
17:25 28.1 71.0 1014.4 9.7 41.8 0.0
17:35 27.7 73.0 1014.4 11.3 41.8 0.0
17:45 27.7 73.0 1014.4 11.3 41.8 0.0
17:55 27.5 74.0 1014.3 9.7 41.8 0.0
18:05 27.3 74.0 1014.3 9.7 41.8 0.0
18:15 27.3 74.0 1014.3 9.7 41.8 0.0
18:25 27.2 74.0 1014.3 6.4 41.8 0.0
18:35 27.1 74.0 1014.4 8.0 41.8 0.0
18:45 27.1 74.0 1014.4 8.0 41.8 0.0
18:55 27.1 74.0 1014.5 4.8 41.8 0.0
19:05 26.8 74.0 1014.4 3.2 41.8 0.0
19:15 26.8 74.0 1014.4 3.2 41.8 0.0
19:25 26.7 74.0 1014.4 3.2 41.8 0.0
19:35 26.5 75.0 1014.5 1.6 41.8 0.0
19:45 26.5 75.0 1014.5 1.6 41.8 0.0
19:55 26.3 75.0 1014.5 1.6 41.8 0.0
20:05 26.3 75.0 1014.6 0.0 41.8 0.0
20:15 26.3 75.0 1014.6 0.0 41.8 0.0
20:25 26.3 75.0 1014.7 0.0 41.8 0.0
20:35 26.2 76.0 1014.7 1.6 41.8 0.0
20:45 26.2 76.0 1014.7 1.6 41.8 0.0
20:55 25.9 77.0 1014.7 0.0 41.8 0.0
21:05 25.7 77.0 1014.7 0.0 41.8 0.0
21:15 25.7 77.0 1014.7 0.0 41.8 0.0
Máxima 30.6 77.0 1018.1 19.3 41.8 0.0
Mínima 20 52.0 1014.3
Total 0.0